sensor_id;sensor_type;location;lat;lon;timestamp;P1;durP1;ratioP1;P2;durP2;ratioP2
46941;SDS011;32676;52.630;4.896;2023-07-09T00:00:06;16.83;;;11.77;;
46941;SDS011;32676;52.630;4.896;2023-07-09T00:02:39;16.90;;;13.35;;
46941;SDS011;32676;52.630;4.896;2023-07-09T00:05:07;16.25;;;13.05;;
46941;SDS011;32676;52.630;4.896;2023-07-09T00:07:38;17.80;;;13.23;;
46941;SDS011;32676;52.630;4.896;2023-07-09T00:10:08;16.75;;;13.32;;
46941;SDS011;32676;52.630;4.896;2023-07-09T00:12:41;16.17;;;12.02;;
46941;SDS011;32676;52.630;4.896;2023-07-09T00:15:09;17.33;;;11.20;;
46941;SDS011;32676;52.630;4.896;2023-07-09T00:17:37;18.95;;;11.73;;
46941;SDS011;32676;52.630;4.896;2023-07-09T00:20:05;15.40;;;12.48;;
46941;SDS011;32676;52.630;4.896;2023-07-09T00:22:38;29.20;;;13.33;;
46941;SDS011;32676;52.630;4.896;2023-07-09T00:25:05;17.00;;;12.77;;
46941;SDS011;32676;52.630;4.896;2023-07-09T00:27:35;20.67;;;13.90;;
46941;SDS011;32676;52.630;4.896;2023-07-09T00:30:03;22.42;;;12.02;;
46941;SDS011;32676;52.630;4.896;2023-07-09T00:32:30;19.75;;;12.90;;
46941;SDS011;32676;52.630;4.896;2023-07-09T00:35:08;19.35;;;13.93;;
46941;SDS011;32676;52.630;4.896;2023-07-09T00:37:35;16.05;;;12.55;;
46941;SDS011;32676;52.630;4.896;2023-07-09T00:40:01;20.13;;;12.35;;
46941;SDS011;32676;52.630;4.896;2023-07-09T00:42:29;17.17;;;12.85;;
46941;SDS011;32676;52.630;4.896;2023-07-09T00:44:57;18.67;;;13.60;;
46941;SDS011;32676;52.630;4.896;2023-07-09T00:47:24;19.25;;;13.63;;
46941;SDS011;32676;52.630;4.896;2023-07-09T00:50:03;22.73;;;14.70;;
46941;SDS011;32676;52.630;4.896;2023-07-09T00:52:36;22.60;;;14.07;;
46941;SDS011;32676;52.630;4.896;2023-07-09T00:55:10;20.10;;;14.00;;
46941;SDS011;32676;52.630;4.896;2023-07-09T00:57:41;23.67;;;14.10;;
46941;SDS011;32676;52.630;4.896;2023-07-09T01:00:22;18.35;;;13.68;;
46941;SDS011;32676;52.630;4.896;2023-07-09T01:02:52;16.95;;;12.75;;
46941;SDS011;32676;52.630;4.896;2023-07-09T01:05:19;21.95;;;13.82;;
46941;SDS011;32676;52.630;4.896;2023-07-09T01:07:47;26.17;;;14.77;;
46941;SDS011;32676;52.630;4.896;2023-07-09T01:10:14;21.08;;;14.75;;
46941;SDS011;32676;52.630;4.896;2023-07-09T01:12:42;21.35;;;12.32;;
46941;SDS011;32676;52.630;4.896;2023-07-09T01:15:09;18.23;;;12.63;;
46941;SDS011;32676;52.630;4.896;2023-07-09T01:17:38;16.90;;;11.25;;
46941;SDS011;32676;52.630;4.896;2023-07-09T01:20:14;19.42;;;12.00;;
46941;SDS011;32676;52.630;4.896;2023-07-09T01:22:47;18.45;;;12.48;;
46941;SDS011;32676;52.630;4.896;2023-07-09T01:25:22;21.02;;;13.93;;
46941;SDS011;32676;52.630;4.896;2023-07-09T01:27:50;19.25;;;11.77;;
46941;SDS011;32676;52.630;4.896;2023-07-09T01:30:18;22.73;;;11.15;;
46941;SDS011;32676;52.630;4.896;2023-07-09T01:32:48;19.10;;;12.40;;
46941;SDS011;32676;52.630;4.896;2023-07-09T01:35:15;26.08;;;12.57;;
46941;SDS011;32676;52.630;4.896;2023-07-09T01:37:43;18.95;;;11.85;;
46941;SDS011;32676;52.630;4.896;2023-07-09T01:40:14;20.38;;;12.65;;
46941;SDS011;32676;52.630;4.896;2023-07-09T01:42:43;21.73;;;11.65;;
46941;SDS011;32676;52.630;4.896;2023-07-09T01:45:10;19.75;;;12.88;;
46941;SDS011;32676;52.630;4.896;2023-07-09T01:47:38;26.90;;;11.52;;
46941;SDS011;32676;52.630;4.896;2023-07-09T01:50:06;16.38;;;10.95;;
46941;SDS011;32676;52.630;4.896;2023-07-09T01:52:34;19.10;;;11.40;;
46941;SDS011;32676;52.630;4.896;2023-07-09T01:55:02;15.52;;;11.20;;
46941;SDS011;32676;52.630;4.896;2023-07-09T01:57:31;14.02;;;10.65;;
46941;SDS011;32676;52.630;4.896;2023-07-09T02:00:00;16.45;;;10.38;;
46941;SDS011;32676;52.630;4.896;2023-07-09T02:02:28;15.90;;;11.20;;
46941;SDS011;32676;52.630;4.896;2023-07-09T02:04:57;31.90;;;11.88;;
46941;SDS011;32676;52.630;4.896;2023-07-09T02:07:24;27.52;;;12.35;;
46941;SDS011;32676;52.630;4.896;2023-07-09T02:09:51;19.10;;;12.45;;
46941;SDS011;32676;52.630;4.896;2023-07-09T02:12:17;24.80;;;12.77;;
46941;SDS011;32676;52.630;4.896;2023-07-09T02:14:46;15.13;;;11.00;;
46941;SDS011;32676;52.630;4.896;2023-07-09T02:17:13;20.67;;;11.98;;
46941;SDS011;32676;52.630;4.896;2023-07-09T02:19:40;18.85;;;11.68;;
46941;SDS011;32676;52.630;4.896;2023-07-09T02:22:07;26.60;;;12.02;;
46941;SDS011;32676;52.630;4.896;2023-07-09T02:24:34;17.80;;;11.18;;
46941;SDS011;32676;52.630;4.896;2023-07-09T02:27:02;21.33;;;11.30;;
46941;SDS011;32676;52.630;4.896;2023-07-09T02:29:31;17.40;;;10.60;;
46941;SDS011;32676;52.630;4.896;2023-07-09T02:32:00;21.58;;;12.80;;
46941;SDS011;32676;52.630;4.896;2023-07-09T02:34:27;22.65;;;11.45;;
46941;SDS011;32676;52.630;4.896;2023-07-09T02:36:56;16.75;;;11.48;;
46941;SDS011;32676;52.630;4.896;2023-07-09T02:39:24;17.17;;;11.05;;
46941;SDS011;32676;52.630;4.896;2023-07-09T02:41:51;25.58;;;10.93;;
46941;SDS011;32676;52.630;4.896;2023-07-09T02:44:17;15.05;;;10.73;;
46941;SDS011;32676;52.630;4.896;2023-07-09T02:46:44;19.70;;;10.50;;
46941;SDS011;32676;52.630;4.896;2023-07-09T02:49:13;17.80;;;10.88;;
46941;SDS011;32676;52.630;4.896;2023-07-09T02:51:40;18.30;;;11.00;;
46941;SDS011;32676;52.630;4.896;2023-07-09T02:54:07;20.17;;;11.98;;
46941;SDS011;32676;52.630;4.896;2023-07-09T02:56:33;20.70;;;12.18;;
46941;SDS011;32676;52.630;4.896;2023-07-09T02:59:00;18.90;;;12.57;;
46941;SDS011;32676;52.630;4.896;2023-07-09T03:01:26;19.33;;;10.98;;
46941;SDS011;32676;52.630;4.896;2023-07-09T03:03:53;16.52;;;10.80;;
46941;SDS011;32676;52.630;4.896;2023-07-09T03:06:22;20.75;;;12.30;;
46941;SDS011;32676;52.630;4.896;2023-07-09T03:08:50;16.33;;;11.35;;
46941;SDS011;32676;52.630;4.896;2023-07-09T03:11:18;23.40;;;11.35;;
46941;SDS011;32676;52.630;4.896;2023-07-09T03:13:45;20.08;;;12.48;;
46941;SDS011;32676;52.630;4.896;2023-07-09T03:16:12;19.25;;;12.05;;
46941;SDS011;32676;52.630;4.896;2023-07-09T03:18:39;20.60;;;12.18;;
46941;SDS011;32676;52.630;4.896;2023-07-09T03:21:06;20.00;;;11.98;;
46941;SDS011;32676;52.630;4.896;2023-07-09T03:23:34;24.45;;;12.85;;
46941;SDS011;32676;52.630;4.896;2023-07-09T03:26:00;22.75;;;13.40;;
46941;SDS011;32676;52.630;4.896;2023-07-09T03:28:28;17.92;;;10.80;;
46941;SDS011;32676;52.630;4.896;2023-07-09T03:30:56;25.38;;;12.10;;
46941;SDS011;32676;52.630;4.896;2023-07-09T03:33:22;20.20;;;10.95;;
46941;SDS011;32676;52.630;4.896;2023-07-09T03:35:49;22.52;;;10.70;;
46941;SDS011;32676;52.630;4.896;2023-07-09T03:38:16;19.55;;;11.73;;
46941;SDS011;32676;52.630;4.896;2023-07-09T03:40:44;20.85;;;11.65;;
46941;SDS011;32676;52.630;4.896;2023-07-09T03:43:11;21.25;;;11.48;;
46941;SDS011;32676;52.630;4.896;2023-07-09T03:45:37;19.08;;;10.93;;
46941;SDS011;32676;52.630;4.896;2023-07-09T03:48:04;20.42;;;10.93;;
46941;SDS011;32676;52.630;4.896;2023-07-09T03:50:31;19.80;;;11.50;;
46941;SDS011;32676;52.630;4.896;2023-07-09T03:52:58;21.45;;;12.40;;
46941;SDS011;32676;52.630;4.896;2023-07-09T03:55:25;20.05;;;11.25;;
46941;SDS011;32676;52.630;4.896;2023-07-09T03:57:53;20.73;;;10.68;;
46941;SDS011;32676;52.630;4.896;2023-07-09T04:00:21;23.27;;;11.98;;
46941;SDS011;32676;52.630;4.896;2023-07-09T04:02:48;21.40;;;11.70;;
46941;SDS011;32676;52.630;4.896;2023-07-09T04:05:14;16.88;;;10.52;;
46941;SDS011;32676;52.630;4.896;2023-07-09T04:07:42;21.40;;;11.07;;
46941;SDS011;32676;52.630;4.896;2023-07-09T04:10:08;25.48;;;11.50;;
46941;SDS011;32676;52.630;4.896;2023-07-09T04:12:35;20.55;;;10.55;;
46941;SDS011;32676;52.630;4.896;2023-07-09T04:15:04;19.13;;;10.05;;
46941;SDS011;32676;52.630;4.896;2023-07-09T04:17:31;17.45;;;9.93;;
46941;SDS011;32676;52.630;4.896;2023-07-09T04:19:58;16.80;;;9.57;;
46941;SDS011;32676;52.630;4.896;2023-07-09T04:22:24;17.25;;;11.02;;
46941;SDS011;32676;52.630;4.896;2023-07-09T04:24:51;16.13;;;10.02;;
46941;SDS011;32676;52.630;4.896;2023-07-09T04:27:18;17.70;;;11.50;;
46941;SDS011;32676;52.630;4.896;2023-07-09T04:29:45;18.17;;;11.05;;
46941;SDS011;32676;52.630;4.896;2023-07-09T04:32:13;20.45;;;11.23;;
46941;SDS011;32676;52.630;4.896;2023-07-09T04:34:40;20.92;;;11.15;;
46941;SDS011;32676;52.630;4.896;2023-07-09T04:37:07;22.92;;;11.63;;
46941;SDS011;32676;52.630;4.896;2023-07-09T04:39:36;16.58;;;11.05;;
46941;SDS011;32676;52.630;4.896;2023-07-09T04:42:03;19.42;;;11.63;;
46941;SDS011;32676;52.630;4.896;2023-07-09T04:44:31;24.02;;;12.20;;
46941;SDS011;32676;52.630;4.896;2023-07-09T04:46:57;19.98;;;12.65;;
46941;SDS011;32676;52.630;4.896;2023-07-09T04:49:25;21.55;;;12.60;;
46941;SDS011;32676;52.630;4.896;2023-07-09T04:51:51;23.98;;;11.65;;
46941;SDS011;32676;52.630;4.896;2023-07-09T04:54:18;17.40;;;11.32;;
46941;SDS011;32676;52.630;4.896;2023-07-09T04:56:47;17.50;;;11.90;;
46941;SDS011;32676;52.630;4.896;2023-07-09T04:59:14;30.55;;;12.38;;
46941;SDS011;32676;52.630;4.896;2023-07-09T05:01:40;23.13;;;13.57;;
46941;SDS011;32676;52.630;4.896;2023-07-09T05:04:07;18.52;;;13.43;;
46941;SDS011;32676;52.630;4.896;2023-07-09T05:06:35;26.85;;;13.90;;
46941;SDS011;32676;52.630;4.896;2023-07-09T05:09:02;22.75;;;14.20;;
46941;SDS011;32676;52.630;4.896;2023-07-09T05:11:28;24.77;;;16.20;;
46941;SDS011;32676;52.630;4.896;2023-07-09T05:13:57;27.33;;;16.75;;
46941;SDS011;32676;52.630;4.896;2023-07-09T05:16:23;28.42;;;15.55;;
46941;SDS011;32676;52.630;4.896;2023-07-09T05:18:50;23.45;;;16.33;;
46941;SDS011;32676;52.630;4.896;2023-07-09T05:21:16;26.60;;;17.92;;
46941;SDS011;32676;52.630;4.896;2023-07-09T05:23:44;28.33;;;18.40;;
46941;SDS011;32676;52.630;4.896;2023-07-09T05:26:11;25.52;;;16.83;;
46941;SDS011;32676;52.630;4.896;2023-07-09T05:28:37;27.50;;;17.55;;
46941;SDS011;32676;52.630;4.896;2023-07-09T05:31:04;32.45;;;18.83;;
46941;SDS011;32676;52.630;4.896;2023-07-09T05:33:31;25.35;;;15.95;;
46941;SDS011;32676;52.630;4.896;2023-07-09T05:35:58;28.77;;;16.63;;
46941;SDS011;32676;52.630;4.896;2023-07-09T05:38:24;26.95;;;17.45;;
46941;SDS011;32676;52.630;4.896;2023-07-09T05:40:59;28.10;;;16.90;;
46941;SDS011;32676;52.630;4.896;2023-07-09T05:43:27;25.77;;;16.58;;
46941;SDS011;32676;52.630;4.896;2023-07-09T05:45:54;27.58;;;17.42;;
46941;SDS011;32676;52.630;4.896;2023-07-09T05:48:20;28.40;;;16.33;;
46941;SDS011;32676;52.630;4.896;2023-07-09T05:50:47;21.90;;;16.38;;
46941;SDS011;32676;52.630;4.896;2023-07-09T05:53:14;26.17;;;17.70;;
46941;SDS011;32676;52.630;4.896;2023-07-09T05:55:41;22.08;;;15.35;;
46941;SDS011;32676;52.630;4.896;2023-07-09T05:58:09;25.17;;;16.67;;
46941;SDS011;32676;52.630;4.896;2023-07-09T06:00:35;24.45;;;16.00;;
46941;SDS011;32676;52.630;4.896;2023-07-09T06:03:02;23.88;;;16.10;;
46941;SDS011;32676;52.630;4.896;2023-07-09T06:05:32;26.20;;;17.23;;
46941;SDS011;32676;52.630;4.896;2023-07-09T06:07:58;23.55;;;16.17;;
46941;SDS011;32676;52.630;4.896;2023-07-09T06:10:25;30.63;;;15.55;;
46941;SDS011;32676;52.630;4.896;2023-07-09T06:12:51;26.83;;;16.13;;
46941;SDS011;32676;52.630;4.896;2023-07-09T06:15:20;22.85;;;13.55;;
46941;SDS011;32676;52.630;4.896;2023-07-09T06:17:47;17.40;;;12.18;;
46941;SDS011;32676;52.630;4.896;2023-07-09T06:20:13;21.42;;;13.68;;
46941;SDS011;32676;52.630;4.896;2023-07-09T06:22:40;19.90;;;12.90;;
46941;SDS011;32676;52.630;4.896;2023-07-09T06:25:07;22.70;;;12.77;;
46941;SDS011;32676;52.630;4.896;2023-07-09T06:27:34;17.70;;;12.88;;
46941;SDS011;32676;52.630;4.896;2023-07-09T06:30:00;19.42;;;12.77;;
46941;SDS011;32676;52.630;4.896;2023-07-09T06:32:28;18.50;;;12.57;;
46941;SDS011;32676;52.630;4.896;2023-07-09T06:34:55;16.80;;;12.05;;
46941;SDS011;32676;52.630;4.896;2023-07-09T06:37:21;19.05;;;11.43;;
46941;SDS011;32676;52.630;4.896;2023-07-09T06:39:48;17.27;;;11.65;;
46941;SDS011;32676;52.630;4.896;2023-07-09T06:42:14;17.10;;;10.68;;
46941;SDS011;32676;52.630;4.896;2023-07-09T06:44:41;16.80;;;11.35;;
46941;SDS011;32676;52.630;4.896;2023-07-09T06:47:07;16.70;;;10.32;;
46941;SDS011;32676;52.630;4.896;2023-07-09T06:49:35;17.45;;;10.65;;
46941;SDS011;32676;52.630;4.896;2023-07-09T06:52:02;17.08;;;8.35;;
46941;SDS011;32676;52.630;4.896;2023-07-09T06:54:29;18.63;;;8.95;;
46941;SDS011;32676;52.630;4.896;2023-07-09T06:56:55;13.20;;;8.00;;
46941;SDS011;32676;52.630;4.896;2023-07-09T06:59:21;13.70;;;8.25;;
46941;SDS011;32676;52.630;4.896;2023-07-09T07:01:48;14.85;;;8.85;;
46941;SDS011;32676;52.630;4.896;2023-07-09T07:04:14;13.38;;;7.28;;
46941;SDS011;32676;52.630;4.896;2023-07-09T07:06:42;14.25;;;6.13;;
46941;SDS011;32676;52.630;4.896;2023-07-09T07:09:10;11.00;;;5.43;;
46941;SDS011;32676;52.630;4.896;2023-07-09T07:11:37;13.13;;;7.05;;
46941;SDS011;32676;52.630;4.896;2023-07-09T07:14:03;17.88;;;7.47;;
46941;SDS011;32676;52.630;4.896;2023-07-09T07:16:30;12.05;;;6.80;;
46941;SDS011;32676;52.630;4.896;2023-07-09T07:18:56;9.48;;;5.35;;
46941;SDS011;32676;52.630;4.896;2023-07-09T07:21:22;8.65;;;5.30;;
46941;SDS011;32676;52.630;4.896;2023-07-09T07:23:50;11.85;;;5.68;;
46941;SDS011;32676;52.630;4.896;2023-07-09T07:26:17;11.18;;;5.50;;
46941;SDS011;32676;52.630;4.896;2023-07-09T07:28:43;26.67;;;6.25;;
46941;SDS011;32676;52.630;4.896;2023-07-09T07:31:10;7.88;;;5.25;;
46941;SDS011;32676;52.630;4.896;2023-07-09T07:33:38;8.90;;;5.20;;
46941;SDS011;32676;52.630;4.896;2023-07-09T07:36:06;10.95;;;5.72;;
46941;SDS011;32676;52.630;4.896;2023-07-09T07:38:33;13.55;;;5.55;;
46941;SDS011;32676;52.630;4.896;2023-07-09T07:41:02;8.55;;;5.38;;
46941;SDS011;32676;52.630;4.896;2023-07-09T07:43:28;7.95;;;5.07;;
46941;SDS011;32676;52.630;4.896;2023-07-09T07:45:55;15.68;;;6.05;;
46941;SDS011;32676;52.630;4.896;2023-07-09T07:48:21;11.02;;;6.03;;
46941;SDS011;32676;52.630;4.896;2023-07-09T07:50:48;12.45;;;5.18;;
46941;SDS011;32676;52.630;4.896;2023-07-09T07:53:14;10.57;;;5.07;;
46941;SDS011;32676;52.630;4.896;2023-07-09T07:55:41;10.60;;;5.38;;
46941;SDS011;32676;52.630;4.896;2023-07-09T07:58:10;14.40;;;5.68;;
46941;SDS011;32676;52.630;4.896;2023-07-09T08:00:37;12.25;;;4.88;;
46941;SDS011;32676;52.630;4.896;2023-07-09T08:03:04;9.20;;;5.32;;
46941;SDS011;32676;52.630;4.896;2023-07-09T08:05:31;7.93;;;4.80;;
46941;SDS011;32676;52.630;4.896;2023-07-09T08:07:57;14.55;;;4.75;;
46941;SDS011;32676;52.630;4.896;2023-07-09T08:10:24;12.48;;;5.10;;
46941;SDS011;32676;52.630;4.896;2023-07-09T08:12:50;6.65;;;3.65;;
46941;SDS011;32676;52.630;4.896;2023-07-09T08:15:22;8.82;;;3.88;;
46941;SDS011;32676;52.630;4.896;2023-07-09T08:17:49;7.65;;;4.20;;
46941;SDS011;32676;52.630;4.896;2023-07-09T08:20:16;7.97;;;3.58;;
46941;SDS011;32676;52.630;4.896;2023-07-09T08:22:42;6.60;;;3.17;;
46941;SDS011;32676;52.630;4.896;2023-07-09T08:25:09;7.13;;;3.60;;
46941;SDS011;32676;52.630;4.896;2023-07-09T08:27:35;12.45;;;2.78;;
46941;SDS011;32676;52.630;4.896;2023-07-09T08:30:02;9.57;;;3.33;;
46941;SDS011;32676;52.630;4.896;2023-07-09T08:32:30;5.10;;;2.33;;
46941;SDS011;32676;52.630;4.896;2023-07-09T08:34:57;6.78;;;3.08;;
46941;SDS011;32676;52.630;4.896;2023-07-09T08:37:23;8.07;;;2.95;;
46941;SDS011;32676;52.630;4.896;2023-07-09T08:39:49;8.45;;;2.88;;
46941;SDS011;32676;52.630;4.896;2023-07-09T08:42:17;7.63;;;2.60;;
46941;SDS011;32676;52.630;4.896;2023-07-09T08:47:28;11.98;;;3.05;;
46941;SDS011;32676;52.630;4.896;2023-07-09T08:50:03;4.43;;;1.75;;
46941;SDS011;32676;52.630;4.896;2023-07-09T08:52:35;4.60;;;2.10;;
46941;SDS011;32676;52.630;4.896;2023-07-09T08:55:04;3.25;;;1.40;;
46941;SDS011;32676;52.630;4.896;2023-07-09T08:57:35;5.63;;;1.50;;
46941;SDS011;32676;52.630;4.896;2023-07-09T09:00:05;2.70;;;1.50;;
46941;SDS011;32676;52.630;4.896;2023-07-09T09:02:43;4.47;;;2.22;;
46941;SDS011;32676;52.630;4.896;2023-07-09T09:05:17;6.95;;;2.20;;
46941;SDS011;32676;52.630;4.896;2023-07-09T09:07:47;4.47;;;2.55;;
46941;SDS011;32676;52.630;4.896;2023-07-09T09:10:21;8.00;;;1.37;;
46941;SDS011;32676;52.630;4.896;2023-07-09T09:13:00;5.28;;;1.67;;
46941;SDS011;32676;52.630;4.896;2023-07-09T09:15:31;4.38;;;2.08;;
46941;SDS011;32676;52.630;4.896;2023-07-09T09:18:09;5.60;;;1.67;;
46941;SDS011;32676;52.630;4.896;2023-07-09T09:20:45;5.30;;;1.80;;
46941;SDS011;32676;52.630;4.896;2023-07-09T09:23:14;7.57;;;2.75;;
46941;SDS011;32676;52.630;4.896;2023-07-09T09:25:41;5.88;;;1.98;;
46941;SDS011;32676;52.630;4.896;2023-07-09T09:28:13;5.40;;;2.25;;
46941;SDS011;32676;52.630;4.896;2023-07-09T09:30:39;7.03;;;1.40;;
46941;SDS011;32676;52.630;4.896;2023-07-09T09:33:08;6.30;;;1.98;;
46941;SDS011;32676;52.630;4.896;2023-07-09T09:35:37;6.03;;;1.90;;
46941;SDS011;32676;52.630;4.896;2023-07-09T09:38:09;3.47;;;1.80;;
46941;SDS011;32676;52.630;4.896;2023-07-09T09:40:37;3.53;;;2.30;;
46941;SDS011;32676;52.630;4.896;2023-07-09T09:43:09;4.90;;;2.00;;
46941;SDS011;32676;52.630;4.896;2023-07-09T09:45:39;6.28;;;1.73;;
46941;SDS011;32676;52.630;4.896;2023-07-09T09:48:13;3.80;;;1.38;;
46941;SDS011;32676;52.630;4.896;2023-07-09T09:50:41;7.15;;;1.30;;
46941;SDS011;32676;52.630;4.896;2023-07-09T09:53:07;7.85;;;2.20;;
46941;SDS011;32676;52.630;4.896;2023-07-09T09:55:37;4.85;;;1.45;;
46941;SDS011;32676;52.630;4.896;2023-07-09T09:58:11;4.15;;;1.40;;
46941;SDS011;32676;52.630;4.896;2023-07-09T10:00:46;4.22;;;1.58;;
46941;SDS011;32676;52.630;4.896;2023-07-09T10:03:16;5.57;;;1.70;;
46941;SDS011;32676;52.630;4.896;2023-07-09T10:05:43;4.35;;;1.70;;
46941;SDS011;32676;52.630;4.896;2023-07-09T10:08:15;3.55;;;1.85;;
46941;SDS011;32676;52.630;4.896;2023-07-09T10:10:48;6.80;;;1.60;;
46941;SDS011;32676;52.630;4.896;2023-07-09T10:13:20;6.30;;;1.67;;
46941;SDS011;32676;52.630;4.896;2023-07-09T10:15:59;5.22;;;1.50;;
46941;SDS011;32676;52.630;4.896;2023-07-09T10:18:35;4.25;;;1.80;;
46941;SDS011;32676;52.630;4.896;2023-07-09T10:21:14;4.13;;;1.60;;
46941;SDS011;32676;52.630;4.896;2023-07-09T10:23:47;10.23;;;2.78;;
46941;SDS011;32676;52.630;4.896;2023-07-09T10:26:22;5.70;;;1.75;;
46941;SDS011;32676;52.630;4.896;2023-07-09T10:28:56;3.75;;;1.77;;
46941;SDS011;32676;52.630;4.896;2023-07-09T10:31:34;5.35;;;1.55;;
46941;SDS011;32676;52.630;4.896;2023-07-09T10:34:11;4.53;;;1.85;;
46941;SDS011;32676;52.630;4.896;2023-07-09T10:36:48;3.65;;;1.52;;
46941;SDS011;32676;52.630;4.896;2023-07-09T10:39:27;5.85;;;1.50;;
46941;SDS011;32676;52.630;4.896;2023-07-09T10:41:59;5.78;;;1.70;;
46941;SDS011;32676;52.630;4.896;2023-07-09T10:44:28;8.98;;;1.80;;
46941;SDS011;32676;52.630;4.896;2023-07-09T10:46:59;3.92;;;1.60;;
46941;SDS011;32676;52.630;4.896;2023-07-09T10:49:31;4.07;;;1.33;;
46941;SDS011;32676;52.630;4.896;2023-07-09T10:52:04;8.43;;;1.77;;
46941;SDS011;32676;52.630;4.896;2023-07-09T10:54:35;6.47;;;2.67;;
46941;SDS011;32676;52.630;4.896;2023-07-09T10:57:09;3.70;;;1.58;;
46941;SDS011;32676;52.630;4.896;2023-07-09T10:59:40;3.17;;;1.85;;
46941;SDS011;32676;52.630;4.896;2023-07-09T11:02:13;3.65;;;1.67;;
46941;SDS011;32676;52.630;4.896;2023-07-09T11:04:46;4.65;;;1.60;;
46941;SDS011;32676;52.630;4.896;2023-07-09T11:07:17;4.10;;;1.35;;
46941;SDS011;32676;52.630;4.896;2023-07-09T11:09:48;8.05;;;1.58;;
46941;SDS011;32676;52.630;4.896;2023-07-09T11:12:21;4.90;;;1.67;;
46941;SDS011;32676;52.630;4.896;2023-07-09T11:14:51;3.50;;;1.48;;
46941;SDS011;32676;52.630;4.896;2023-07-09T11:17:21;3.90;;;1.73;;
46941;SDS011;32676;52.630;4.896;2023-07-09T11:19:54;5.80;;;1.90;;
46941;SDS011;32676;52.630;4.896;2023-07-09T11:22:22;3.22;;;1.42;;
46941;SDS011;32676;52.630;4.896;2023-07-09T11:24:51;5.15;;;2.53;;
46941;SDS011;32676;52.630;4.896;2023-07-09T11:27:22;3.67;;;1.63;;
46941;SDS011;32676;52.630;4.896;2023-07-09T11:29:55;3.70;;;1.65;;
46941;SDS011;32676;52.630;4.896;2023-07-09T11:34:53;4.97;;;1.92;;
46941;SDS011;32676;52.630;4.896;2023-07-09T11:37:22;7.22;;;1.92;;
46941;SDS011;32676;52.630;4.896;2023-07-09T11:39:51;6.35;;;1.77;;
46941;SDS011;32676;52.630;4.896;2023-07-09T11:42:28;8.55;;;1.85;;
46941;SDS011;32676;52.630;4.896;2023-07-09T11:44:58;8.63;;;3.13;;
46941;SDS011;32676;52.630;4.896;2023-07-09T11:47:31;6.68;;;2.63;;
46941;SDS011;32676;52.630;4.896;2023-07-09T11:50:04;4.20;;;1.80;;
46941;SDS011;32676;52.630;4.896;2023-07-09T11:52:37;8.65;;;3.13;;
46941;SDS011;32676;52.630;4.896;2023-07-09T11:55:15;9.40;;;2.30;;
46941;SDS011;32676;52.630;4.896;2023-07-09T11:57:48;7.15;;;2.55;;
46941;SDS011;32676;52.630;4.896;2023-07-09T12:00:15;8.10;;;2.22;;
46941;SDS011;32676;52.630;4.896;2023-07-09T12:02:42;6.25;;;2.83;;
46941;SDS011;32676;52.630;4.896;2023-07-09T12:05:10;8.30;;;1.95;;
46941;SDS011;32676;52.630;4.896;2023-07-09T12:07:38;8.13;;;2.25;;
46941;SDS011;32676;52.630;4.896;2023-07-09T12:10:11;12.43;;;2.40;;
46941;SDS011;32676;52.630;4.896;2023-07-09T12:12:46;9.27;;;2.13;;
46941;SDS011;32676;52.630;4.896;2023-07-09T12:15:15;8.63;;;2.35;;
46941;SDS011;32676;52.630;4.896;2023-07-09T12:17:52;5.00;;;1.65;;
46941;SDS011;32676;52.630;4.896;2023-07-09T12:20:24;4.47;;;2.00;;
46941;SDS011;32676;52.630;4.896;2023-07-09T12:22:51;4.55;;;1.80;;
46941;SDS011;32676;52.630;4.896;2023-07-09T12:25:19;5.57;;;2.28;;
46941;SDS011;32676;52.630;4.896;2023-07-09T12:27:49;7.63;;;2.15;;
46941;SDS011;32676;52.630;4.896;2023-07-09T12:30:17;5.82;;;2.30;;
46941;SDS011;32676;52.630;4.896;2023-07-09T12:32:44;6.32;;;2.22;;
46941;SDS011;32676;52.630;4.896;2023-07-09T12:35:12;5.30;;;2.17;;
46941;SDS011;32676;52.630;4.896;2023-07-09T12:37:42;5.93;;;1.92;;
46941;SDS011;32676;52.630;4.896;2023-07-09T12:40:14;7.88;;;2.10;;
46941;SDS011;32676;52.630;4.896;2023-07-09T12:42:43;8.02;;;2.50;;
46941;SDS011;32676;52.630;4.896;2023-07-09T12:45:14;5.95;;;2.25;;
46941;SDS011;32676;52.630;4.896;2023-07-09T12:47:43;8.40;;;1.85;;
46941;SDS011;32676;52.630;4.896;2023-07-09T12:50:16;6.97;;;1.25;;
46941;SDS011;32676;52.630;4.896;2023-07-09T12:52:46;12.93;;;1.90;;
46941;SDS011;32676;52.630;4.896;2023-07-09T12:55:20;11.90;;;1.73;;
46941;SDS011;32676;52.630;4.896;2023-07-09T12:57:47;6.60;;;1.60;;
46941;SDS011;32676;52.630;4.896;2023-07-09T13:00:14;16.42;;;2.03;;
46941;SDS011;32676;52.630;4.896;2023-07-09T13:02:42;9.00;;;2.15;;
46941;SDS011;32676;52.630;4.896;2023-07-09T13:05:16;6.45;;;1.80;;
46941;SDS011;32676;52.630;4.896;2023-07-09T13:07:47;9.85;;;2.30;;
46941;SDS011;32676;52.630;4.896;2023-07-09T13:10:18;9.85;;;2.30;;
46941;SDS011;32676;52.630;4.896;2023-07-09T13:12:48;9.73;;;2.47;;
46941;SDS011;32676;52.630;4.896;2023-07-09T13:15:26;12.88;;;2.83;;
46941;SDS011;32676;52.630;4.896;2023-07-09T13:17:58;8.80;;;2.03;;
46941;SDS011;32676;52.630;4.896;2023-07-09T13:20:27;20.67;;;3.95;;
46941;SDS011;32676;52.630;4.896;2023-07-09T13:22:55;9.82;;;2.70;;
46941;SDS011;32676;52.630;4.896;2023-07-09T13:25:23;9.73;;;3.28;;
46941;SDS011;32676;52.630;4.896;2023-07-09T13:27:49;19.75;;;3.65;;
46941;SDS011;32676;52.630;4.896;2023-07-09T13:30:16;15.80;;;3.38;;
46941;SDS011;32676;52.630;4.896;2023-07-09T13:32:43;12.27;;;3.65;;
46941;SDS011;32676;52.630;4.896;2023-07-09T13:35:13;13.20;;;3.83;;
46941;SDS011;32676;52.630;4.896;2023-07-09T13:37:41;15.05;;;3.83;;
46941;SDS011;32676;52.630;4.896;2023-07-09T13:40:11;20.42;;;5.38;;
46941;SDS011;32676;52.630;4.896;2023-07-09T13:42:39;13.45;;;5.50;;
46941;SDS011;32676;52.630;4.896;2023-07-09T13:45:15;16.20;;;7.75;;
46941;SDS011;32676;52.630;4.896;2023-07-09T13:47:48;21.00;;;7.30;;
46941;SDS011;32676;52.630;4.896;2023-07-09T13:50:15;21.13;;;8.38;;
46941;SDS011;32676;52.630;4.896;2023-07-09T13:52:42;20.83;;;8.77;;
46941;SDS011;32676;52.630;4.896;2023-07-09T13:55:16;22.70;;;7.05;;
46941;SDS011;32676;52.630;4.896;2023-07-09T13:57:44;18.80;;;7.15;;
46941;SDS011;32676;52.630;4.896;2023-07-09T14:00:11;15.27;;;6.63;;
46941;SDS011;32676;52.630;4.896;2023-07-09T14:02:39;14.57;;;4.70;;
46941;SDS011;32676;52.630;4.896;2023-07-09T14:05:06;18.67;;;5.70;;
46941;SDS011;32676;52.630;4.896;2023-07-09T14:07:35;13.77;;;5.05;;
46941;SDS011;32676;52.630;4.896;2023-07-09T14:10:05;13.93;;;5.60;;
46941;SDS011;32676;52.630;4.896;2023-07-09T14:12:35;17.00;;;6.80;;
46941;SDS011;32676;52.630;4.896;2023-07-09T14:15:09;17.70;;;7.07;;
46941;SDS011;32676;52.630;4.896;2023-07-09T14:17:38;19.17;;;5.30;;
46941;SDS011;32676;52.630;4.896;2023-07-09T14:20:05;19.33;;;6.00;;
46941;SDS011;32676;52.630;4.896;2023-07-09T14:22:33;10.80;;;5.55;;
46941;SDS011;32676;52.630;4.896;2023-07-09T14:25:01;12.95;;;6.15;;
46941;SDS011;32676;52.630;4.896;2023-07-09T14:27:28;14.23;;;5.30;;
46941;SDS011;32676;52.630;4.896;2023-07-09T14:29:56;12.82;;;5.55;;
46941;SDS011;32676;52.630;4.896;2023-07-09T14:32:31;11.20;;;4.65;;
46941;SDS011;32676;52.630;4.896;2023-07-09T14:35:00;10.75;;;4.70;;
46941;SDS011;32676;52.630;4.896;2023-07-09T14:37:28;12.63;;;4.60;;
46941;SDS011;32676;52.630;4.896;2023-07-09T14:39:55;9.25;;;3.80;;
46941;SDS011;32676;52.630;4.896;2023-07-09T14:42:22;10.75;;;3.63;;
46941;SDS011;32676;52.630;4.896;2023-07-09T14:44:48;7.65;;;3.20;;
46941;SDS011;32676;52.630;4.896;2023-07-09T14:47:17;13.18;;;4.97;;